createdAt,value
2022-08-03T00:00:15.639Z,2.50
2022-08-03T00:01:12.742Z,2.77
2022-08-03T00:02:09.620Z,2.73
2022-08-03T00:03:06.629Z,2.67
2022-08-03T00:04:04.489Z,2.80
2022-08-03T00:05:01.366Z,2.60
2022-08-03T00:06:04.695Z,2.60
2022-08-03T00:07:02.084Z,2.60
2022-08-03T00:07:59.669Z,2.93
2022-08-03T00:08:56.940Z,2.97
2022-08-03T00:09:53.719Z,2.47
2022-08-03T00:10:50.562Z,2.90
2022-08-03T00:11:47.362Z,2.57
2022-08-03T00:12:47.052Z,2.80
2022-08-03T00:13:43.845Z,2.83
2022-08-03T00:14:40.651Z,2.70
2022-08-03T00:15:40.366Z,3.00
2022-08-03T00:16:37.163Z,2.50
2022-08-03T00:17:52.034Z,2.70
2022-08-03T00:23:25.129Z,2.60
2022-08-03T00:24:21.882Z,2.53
2022-08-03T00:25:19.234Z,2.67
2022-08-03T00:26:16.057Z,2.53
2022-08-03T00:27:15.810Z,2.60
2022-08-03T00:28:13.626Z,2.60
2022-08-03T00:29:12.241Z,2.50
2022-08-03T00:30:09.381Z,2.60
2022-08-03T00:31:06.959Z,3.77
2022-08-03T00:32:04.242Z,3.70
2022-08-03T00:33:01.122Z,3.37
2022-08-03T00:34:03.341Z,4.90
2022-08-03T00:35:00.516Z,3.87
2022-08-03T00:36:04.775Z,3.20
2022-08-03T00:37:01.545Z,2.73
2022-08-03T00:37:58.439Z,3.00
2022-08-03T00:38:55.605Z,3.10
2022-08-03T00:39:52.407Z,2.90
2022-08-03T00:40:49.404Z,2.80
2022-08-03T00:41:46.455Z,2.53
2022-08-03T00:42:50.990Z,2.77
2022-08-03T00:43:47.901Z,2.97
2022-08-03T00:44:44.950Z,2.80
2022-08-03T00:45:42.207Z,2.37
2022-08-03T00:46:38.955Z,2.57
2022-08-03T00:47:35.753Z,2.60
2022-08-03T00:53:25.215Z,2.60
2022-08-03T00:54:22.025Z,2.87
2022-08-03T00:55:18.903Z,2.60
2022-08-03T00:56:16.470Z,2.43
2022-08-03T00:57:13.167Z,2.60
2022-08-03T00:58:11.328Z,2.40
2022-08-03T00:59:09.779Z,2.33
2022-08-03T01:00:07.478Z,2.40
2022-08-03T01:01:07.136Z,2.50
2022-08-03T01:02:04.306Z,2.90
2022-08-03T01:03:01.208Z,2.63
2022-08-03T01:03:58.081Z,2.80
2022-08-03T01:04:55.369Z,2.73
2022-08-03T01:05:52.179Z,2.73
2022-08-03T01:07:15.124Z,2.47
2022-08-03T01:08:30.653Z,2.80
2022-08-03T01:09:31.367Z,2.70
2022-08-03T01:10:40.048Z,2.60
2022-08-03T01:12:00.521Z,2.50
2022-08-03T01:13:04.029Z,2.60
2022-08-03T01:14:18.864Z,2.67
2022-08-03T01:15:26.135Z,2.70
2022-08-03T01:16:35.689Z,2.90
2022-08-03T01:23:42.058Z,2.70
2022-08-03T01:25:29.572Z,2.73
2022-08-03T01:26:47.098Z,2.63
2022-08-03T01:28:08.875Z,2.77
2022-08-03T01:29:11.332Z,2.63
2022-08-03T01:30:08.926Z,3.00
2022-08-03T01:31:08.301Z,2.47
2022-08-03T01:33:02.614Z,2.60
2022-08-03T01:33:43.720Z,2.63
2022-08-03T01:34:45.790Z,3.00
2022-08-03T01:35:47.645Z,3.00
2022-08-03T01:36:46.565Z,2.80
2022-08-03T01:37:50.444Z,2.80
2022-08-03T01:38:54.138Z,2.80
2022-08-03T01:39:50.866Z,2.50
2022-08-03T01:40:47.812Z,3.10
2022-08-03T01:41:49.729Z,3.20
2022-08-03T01:42:46.577Z,2.90
2022-08-03T01:44:26.516Z,3.10
2022-08-03T01:45:00.409Z,2.97
2022-08-03T01:45:57.422Z,3.40
2022-08-03T01:46:54.347Z,4.40
2022-08-03T01:53:24.235Z,4.77
2022-08-03T01:54:21.010Z,5.40
2022-08-03T01:55:19.107Z,4.20
2022-08-03T01:56:15.958Z,3.87
2022-08-03T01:57:12.853Z,3.60
2022-08-03T01:58:09.623Z,3.80
2022-08-03T01:59:06.276Z,3.80
2022-08-03T02:00:03.847Z,3.93
2022-08-03T02:01:01.604Z,3.87
2022-08-03T02:02:28.277Z,3.60
2022-08-03T02:03:15.190Z,3.80
2022-08-03T02:04:12.429Z,3.80
2022-08-03T02:05:11.006Z,3.97
2022-08-03T02:07:00.862Z,3.80
2022-08-03T02:07:27.110Z,3.60
2022-08-03T02:08:24.796Z,3.90
2022-08-03T02:09:22.336Z,3.63
2022-08-03T02:10:22.206Z,3.80
2022-08-03T02:11:31.795Z,3.77
2022-08-03T02:12:29.213Z,3.83
2022-08-03T02:13:26.036Z,3.30
2022-08-03T02:14:22.768Z,3.73
2022-08-03T02:15:19.598Z,3.10
2022-08-03T02:16:16.535Z,3.30
2022-08-03T02:17:13.419Z,3.40
2022-08-03T02:23:58.691Z,3.30
2022-08-03T02:24:55.445Z,3.43
2022-08-03T02:25:54.520Z,3.50
2022-08-03T02:26:51.752Z,3.30
2022-08-03T02:27:55.772Z,3.57
2022-08-03T02:28:52.736Z,3.50
2022-08-03T02:29:51.666Z,3.23
2022-08-03T02:30:53.933Z,3.60
2022-08-03T02:31:50.830Z,2.80
2022-08-03T02:32:51.751Z,3.37
2022-08-03T02:33:50.451Z,3.30
2022-08-03T02:34:49.385Z,3.37
2022-08-03T02:35:46.499Z,3.93
2022-08-03T02:36:44.411Z,3.90
2022-08-03T02:37:49.885Z,3.80
2022-08-03T02:38:46.945Z,3.97
2022-08-03T02:39:43.715Z,3.50
2022-08-03T02:40:40.967Z,3.53
2022-08-03T02:41:41.915Z,3.17
2022-08-03T02:42:38.698Z,3.43
2022-08-03T02:44:05.518Z,3.40
2022-08-03T02:44:52.387Z,3.10
2022-08-03T02:45:49.682Z,3.10
2022-08-03T02:46:47.027Z,3.40
2022-08-03T02:53:39.311Z,3.80
2022-08-03T02:54:36.228Z,3.40
2022-08-03T02:55:34.052Z,2.67
2022-08-03T02:56:31.044Z,3.30
2022-08-03T02:57:29.009Z,3.13
2022-08-03T02:58:25.830Z,2.83
2022-08-03T02:59:22.645Z,3.03
2022-08-03T03:00:27.716Z,3.03
2022-08-03T03:01:26.007Z,3.30
2022-08-03T03:02:22.904Z,3.30
2022-08-03T03:03:19.824Z,3.33
2022-08-03T03:04:16.770Z,3.40
2022-08-03T03:05:52.072Z,3.50
2022-08-03T03:06:30.662Z,2.50
2022-08-03T03:07:28.862Z,2.73
2022-08-03T03:08:29.028Z,2.80
2022-08-03T03:09:26.011Z,3.20
2022-08-03T03:10:37.628Z,3.23
2022-08-03T03:11:34.692Z,2.57
2022-08-03T03:12:32.055Z,2.97
2022-08-03T03:13:29.414Z,2.80
2022-08-03T03:14:33.631Z,2.77
2022-08-03T03:15:31.814Z,2.90
2022-08-03T03:16:28.676Z,2.87
2022-08-03T03:17:25.440Z,3.30
2022-08-03T03:23:10.311Z,2.90
2022-08-03T03:24:07.129Z,2.73
2022-08-03T03:25:04.527Z,2.97
2022-08-03T03:26:02.353Z,3.10
2022-08-03T03:26:59.164Z,2.97
2022-08-03T03:27:55.917Z,2.70
2022-08-03T03:28:54.652Z,2.77
2022-08-03T03:29:51.421Z,2.60
2022-08-03T03:30:52.674Z,3.00
2022-08-03T03:31:49.826Z,3.40
2022-08-03T03:32:46.642Z,2.70
2022-08-03T03:33:43.452Z,2.90
2022-08-03T03:34:40.391Z,3.13
2022-08-03T03:35:42.698Z,2.67
2022-08-03T03:36:39.675Z,3.17
2022-08-03T03:37:36.647Z,2.53
2022-08-03T03:38:33.661Z,2.63
2022-08-03T03:39:30.447Z,3.00
2022-08-03T03:40:27.308Z,2.73
2022-08-03T03:41:24.019Z,2.70
2022-08-03T03:42:21.048Z,3.10
2022-08-03T03:43:20.587Z,2.80
2022-08-03T03:44:17.242Z,3.07
2022-08-03T03:45:14.143Z,2.67
2022-08-03T03:46:13.027Z,2.73
2022-08-03T03:47:09.802Z,2.60
2022-08-03T03:54:00.386Z,2.40
2022-08-03T03:55:00.759Z,2.77
2022-08-03T03:56:02.497Z,2.70
2022-08-03T03:56:59.609Z,2.67
2022-08-03T03:57:56.649Z,3.00
2022-08-03T03:58:53.737Z,3.00
2022-08-03T03:59:50.562Z,2.80
2022-08-03T04:00:47.381Z,2.63
2022-08-03T04:01:44.345Z,2.70
2022-08-03T04:02:41.198Z,2.50
2022-08-03T04:03:38.014Z,2.93
2022-08-03T04:04:53.635Z,3.03
2022-08-03T04:06:23.026Z,2.90
2022-08-03T04:07:38.634Z,2.90
2022-08-03T04:08:54.059Z,3.07
2022-08-03T04:10:14.795Z,2.73
2022-08-03T04:11:29.218Z,3.10
2022-08-03T04:12:29.025Z,3.10
2022-08-03T04:13:36.033Z,3.20
2022-08-03T04:14:33.840Z,2.80
2022-08-03T04:15:30.659Z,2.97
2022-08-03T04:16:29.170Z,3.10
2022-08-03T04:17:27.463Z,3.27
2022-08-03T04:24:02.866Z,2.60
2022-08-03T04:25:04.367Z,2.87
2022-08-03T04:26:04.895Z,3.03
2022-08-03T04:27:02.908Z,2.83
2022-08-03T04:28:29.330Z,3.20
2022-08-03T04:29:17.799Z,3.07
2022-08-03T04:30:14.700Z,2.50
2022-08-03T04:31:11.399Z,2.43
2022-08-03T04:32:08.269Z,2.80
2022-08-03T04:33:05.170Z,2.80
2022-08-03T04:34:02.545Z,3.17
2022-08-03T04:34:59.470Z,2.80
2022-08-03T04:36:01.926Z,2.70
2022-08-03T04:37:00.769Z,2.80
2022-08-03T04:37:57.496Z,2.77
2022-08-03T04:39:05.123Z,2.67
2022-08-03T04:40:02.983Z,2.60
2022-08-03T04:40:59.974Z,2.37
2022-08-03T04:42:08.095Z,2.73
2022-08-03T04:43:05.761Z,2.90
2022-08-03T04:44:02.593Z,2.93
2022-08-03T04:45:01.595Z,2.87
2022-08-03T04:45:58.744Z,2.70
2022-08-03T04:46:56.004Z,2.50
2022-08-03T04:53:45.280Z,3.00
2022-08-03T04:54:50.664Z,2.70
2022-08-03T04:55:48.147Z,2.40
2022-08-03T04:56:44.959Z,2.50
2022-08-03T04:57:41.774Z,2.80
2022-08-03T04:58:38.643Z,2.60
2022-08-03T04:59:35.500Z,2.50
2022-08-03T05:00:36.041Z,2.60
2022-08-03T05:01:32.857Z,2.60
2022-08-03T05:02:29.972Z,2.67
2022-08-03T05:03:26.864Z,2.50
2022-08-03T05:04:23.638Z,2.60
2022-08-03T05:05:20.487Z,2.60
2022-08-03T05:06:18.807Z,2.70
2022-08-03T05:07:20.453Z,2.47
2022-08-03T05:08:27.817Z,2.53
2022-08-03T05:09:50.838Z,2.23
2022-08-03T05:10:42.082Z,2.50
2022-08-03T05:11:38.870Z,2.77
2022-08-03T05:12:35.658Z,2.60
2022-08-03T05:13:32.552Z,2.80
2022-08-03T05:14:29.330Z,2.50
2022-08-03T05:15:26.173Z,2.13
2022-08-03T05:16:22.977Z,2.70
2022-08-03T05:17:19.753Z,2.20
2022-08-03T05:24:14.605Z,2.63
2022-08-03T05:25:19.203Z,2.40
2022-08-03T05:26:17.536Z,2.47
2022-08-03T05:27:19.286Z,2.60
2022-08-03T05:28:16.077Z,2.47
2022-08-03T05:29:13.169Z,2.60
2022-08-03T05:30:26.789Z,3.13
2022-08-03T05:31:27.041Z,2.60
2022-08-03T05:32:23.781Z,2.40
2022-08-03T05:33:20.568Z,2.50
2022-08-03T05:34:17.334Z,2.50
2022-08-03T05:35:56.072Z,2.53
2022-08-03T05:36:30.941Z,2.43
2022-08-03T05:37:27.708Z,2.70
2022-08-03T05:38:28.617Z,2.87
2022-08-03T05:39:31.252Z,2.50
2022-08-03T05:40:28.031Z,2.50
2022-08-03T05:41:37.063Z,2.57
2022-08-03T05:42:34.484Z,2.50
2022-08-03T05:43:32.200Z,2.60
2022-08-03T05:44:29.093Z,2.40
2022-08-03T05:45:28.470Z,2.50
2022-08-03T05:46:25.645Z,2.60
2022-08-03T05:47:22.372Z,2.30
2022-08-03T05:54:05.938Z,2.33
2022-08-03T05:55:02.730Z,2.43
2022-08-03T05:56:03.455Z,2.30
2022-08-03T05:57:11.604Z,2.60
2022-08-03T05:58:08.976Z,2.43
2022-08-03T05:59:35.779Z,2.60
2022-08-03T06:00:25.109Z,2.40
2022-08-03T06:01:22.689Z,2.30
2022-08-03T06:02:19.481Z,2.33
2022-08-03T06:03:16.356Z,2.20
2022-08-03T06:04:13.530Z,2.30
2022-08-03T06:05:10.822Z,2.50
2022-08-03T06:06:07.599Z,2.10
2022-08-03T06:07:04.370Z,2.40
2022-08-03T06:08:01.060Z,2.10
2022-08-03T06:08:57.770Z,2.30
2022-08-03T06:10:35.078Z,2.60
2022-08-03T06:11:11.548Z,2.30
2022-08-03T06:12:13.747Z,2.57
2022-08-03T06:13:10.952Z,2.30
2022-08-03T06:14:08.032Z,2.30
2022-08-03T06:15:05.265Z,2.47
2022-08-03T06:16:04.815Z,2.60
2022-08-03T06:17:01.653Z,2.30
2022-08-03T06:23:57.030Z,2.20
2022-08-03T06:24:54.720Z,2.20
2022-08-03T06:25:51.449Z,2.33
2022-08-03T06:26:48.313Z,2.20
2022-08-03T06:27:45.110Z,2.00
2022-08-03T06:28:52.503Z,1.97
2022-08-03T06:29:50.603Z,2.13
2022-08-03T06:30:47.416Z,2.20
2022-08-03T06:31:46.604Z,2.30
2022-08-03T06:32:43.377Z,2.07
2022-08-03T06:34:30.560Z,2.30
2022-08-03T06:35:09.415Z,1.93
2022-08-03T06:36:06.359Z,2.03
2022-08-03T06:37:03.275Z,1.90
2022-08-03T06:37:59.945Z,2.10
2022-08-03T06:38:59.016Z,1.90
2022-08-03T06:39:55.777Z,2.10
2022-08-03T06:40:52.546Z,1.93
2022-08-03T06:41:49.556Z,2.00
2022-08-03T06:42:46.484Z,1.83
2022-08-03T06:44:03.927Z,1.83
2022-08-03T06:45:00.510Z,2.23
2022-08-03T06:45:57.382Z,2.03
2022-08-03T06:46:54.352Z,2.37
2022-08-03T06:53:50.436Z,2.00
2022-08-03T06:54:47.436Z,2.10
2022-08-03T06:55:44.370Z,2.27
2022-08-03T06:56:41.233Z,1.97
2022-08-03T06:57:41.730Z,2.20
2022-08-03T06:58:38.631Z,1.90
2022-08-03T07:00:07.395Z,1.97
2022-08-03T07:00:53.194Z,2.13
2022-08-03T07:01:50.272Z,2.30
2022-08-03T07:02:47.143Z,2.50
2022-08-03T07:03:52.055Z,2.30
2022-08-03T07:04:49.706Z,1.70
2022-08-03T07:05:49.917Z,2.20
2022-08-03T07:06:46.752Z,1.90
2022-08-03T07:07:43.724Z,2.00
2022-08-03T07:08:40.683Z,1.83
2022-08-03T07:09:37.606Z,2.07
2022-08-03T07:10:34.550Z,1.80
2022-08-03T07:11:31.812Z,1.80
2022-08-03T07:12:29.130Z,2.10
2022-08-03T07:13:26.038Z,1.90
2022-08-03T07:14:23.010Z,1.87
2022-08-03T07:15:38.312Z,2.00
2022-08-03T07:16:36.973Z,1.93
2022-08-03T07:17:34.578Z,1.90
2022-08-03T07:23:06.874Z,1.97
2022-08-03T07:24:04.260Z,2.20
2022-08-03T07:25:01.090Z,1.80
2022-08-03T07:25:58.127Z,1.80
2022-08-03T07:26:55.117Z,2.20
2022-08-03T07:27:51.994Z,1.80
2022-08-03T07:28:48.916Z,2.10
2022-08-03T07:29:45.770Z,2.00
2022-08-03T07:30:42.692Z,1.97
2022-08-03T07:31:40.154Z,3.60
2022-08-03T07:32:37.112Z,3.30
2022-08-03T07:33:47.623Z,2.10
2022-08-03T07:34:44.463Z,2.07
2022-08-03T07:35:41.257Z,2.00
2022-08-03T07:36:38.177Z,2.00
2022-08-03T07:37:35.092Z,1.77
2022-08-03T07:38:32.038Z,1.90
2022-08-03T07:39:29.029Z,2.03
2022-08-03T07:40:28.189Z,1.83
2022-08-03T07:41:29.024Z,2.23
2022-08-03T07:42:27.278Z,1.90
2022-08-03T07:43:24.540Z,1.60
2022-08-03T07:44:21.462Z,2.17
2022-08-03T07:45:18.607Z,1.70
2022-08-03T07:46:15.577Z,1.90
2022-08-03T07:47:22.250Z,2.03
2022-08-03T07:53:03.932Z,1.85
2022-08-03T07:54:01.400Z,1.67
2022-08-03T07:54:58.125Z,1.70
2022-08-03T07:55:55.062Z,1.73
2022-08-03T07:56:51.998Z,1.80
2022-08-03T07:58:02.832Z,2.20
2022-08-03T07:59:00.054Z,1.50
2022-08-03T08:00:02.432Z,1.60
2022-08-03T08:00:59.519Z,1.90
2022-08-03T08:01:56.688Z,1.80
2022-08-03T08:02:53.506Z,1.80
2022-08-03T08:03:52.660Z,1.57
2022-08-03T08:04:50.383Z,1.83
2022-08-03T08:05:47.080Z,2.00
2022-08-03T08:06:43.933Z,1.73
2022-08-03T08:07:40.931Z,1.83
2022-08-03T08:08:38.707Z,1.63
2022-08-03T08:09:35.674Z,1.77
2022-08-03T08:10:32.933Z,1.90
2022-08-03T08:11:29.802Z,2.10
2022-08-03T08:12:26.655Z,1.83
2022-08-03T08:13:23.690Z,1.80
2022-08-03T08:14:20.454Z,1.90
2022-08-03T08:15:17.284Z,2.00
2022-08-03T08:16:14.029Z,1.87
2022-08-03T08:17:10.723Z,2.03
2022-08-03T08:23:54.975Z,1.80
2022-08-03T08:24:54.877Z,2.13
2022-08-03T08:25:52.120Z,1.90
2022-08-03T08:26:48.829Z,1.93
2022-08-03T08:28:31.874Z,1.70
2022-08-03T08:29:03.988Z,1.80
2022-08-03T08:30:10.433Z,2.00
2022-08-03T08:31:08.627Z,1.97
2022-08-03T08:32:05.830Z,1.70
2022-08-03T08:33:02.788Z,1.80
2022-08-03T08:34:04.369Z,1.87
2022-08-03T08:35:01.636Z,2.00
2022-08-03T08:35:58.418Z,2.00
2022-08-03T08:36:55.145Z,1.90
2022-08-03T08:37:51.940Z,1.70
2022-08-03T08:38:48.875Z,1.80
2022-08-03T08:39:45.711Z,1.70
2022-08-03T08:40:42.928Z,1.70
2022-08-03T08:41:39.889Z,1.90
2022-08-03T08:42:57.513Z,2.30
2022-08-03T08:44:00.618Z,2.10
2022-08-03T08:44:57.602Z,2.00
2022-08-03T08:45:54.482Z,2.20
2022-08-03T08:46:51.337Z,2.30
2022-08-03T08:53:41.785Z,1.80
2022-08-03T08:54:38.899Z,1.97
2022-08-03T08:55:59.305Z,1.90
2022-08-03T08:56:52.723Z,1.90
2022-08-03T08:58:01.853Z,1.70
2022-08-03T08:58:59.379Z,1.90
2022-08-03T08:59:57.541Z,2.00
2022-08-03T09:00:55.034Z,1.73
2022-08-03T09:01:51.846Z,2.10
2022-08-03T09:02:48.793Z,2.00
2022-08-03T09:03:46.170Z,2.00
2022-08-03T09:04:43.107Z,1.93
2022-08-03T09:05:55.476Z,1.80
2022-08-03T09:07:10.809Z,2.20
2022-08-03T09:08:10.092Z,1.53
2022-08-03T09:09:08.123Z,1.97
2022-08-03T09:10:11.789Z,1.80
2022-08-03T09:11:11.959Z,1.70
2022-08-03T09:12:37.445Z,1.80
2022-08-03T09:13:26.019Z,2.13
2022-08-03T09:14:36.933Z,1.70
2022-08-03T09:15:38.248Z,1.90
2022-08-03T09:16:35.000Z,1.77
2022-08-03T09:24:02.158Z,1.67
2022-08-03T09:25:23.912Z,2.10
2022-08-03T09:26:22.788Z,1.80
2022-08-03T09:27:19.640Z,2.00
2022-08-03T09:28:59.388Z,1.90
2022-08-03T09:29:37.380Z,1.77
2022-08-03T09:30:35.318Z,1.90
2022-08-03T09:31:43.683Z,1.90
2022-08-03T09:32:40.858Z,1.60
2022-08-03T09:33:47.794Z,1.73
2022-08-03T09:34:44.630Z,1.93
2022-08-03T09:35:54.402Z,1.73
2022-08-03T09:36:53.973Z,1.90
2022-08-03T09:38:12.869Z,1.80
2022-08-03T09:39:18.431Z,2.00
2022-08-03T09:40:15.293Z,2.17
2022-08-03T09:41:17.995Z,1.87
2022-08-03T09:42:18.883Z,1.80
2022-08-03T09:43:26.033Z,1.80
2022-08-03T09:44:33.769Z,1.80
2022-08-03T09:45:30.574Z,1.60
2022-08-03T09:46:31.846Z,1.90
2022-08-03T09:47:30.705Z,1.60
2022-08-03T09:53:04.953Z,1.50
2022-08-03T09:54:04.955Z,1.37
2022-08-03T09:56:32.718Z,1.80
2022-08-03T09:56:35.491Z,1.70
2022-08-03T09:57:33.591Z,1.50
2022-08-03T09:58:30.929Z,1.60
2022-08-03T09:59:29.279Z,1.90
2022-08-03T10:00:26.055Z,2.00
2022-08-03T10:01:23.952Z,1.60
2022-08-03T10:02:25.333Z,1.60
2022-08-03T10:03:22.570Z,1.80
2022-08-03T10:04:19.630Z,1.70
2022-08-03T10:05:19.736Z,1.50
2022-08-03T10:06:19.774Z,1.37
2022-08-03T10:07:16.680Z,1.60
2022-08-03T10:08:17.161Z,1.67
2022-08-03T10:09:15.986Z,1.70
2022-08-03T10:10:31.328Z,1.60
2022-08-03T10:11:36.221Z,1.63
2022-08-03T10:12:39.121Z,1.60
2022-08-03T10:13:35.966Z,1.40
2022-08-03T10:14:34.155Z,1.70
2022-08-03T10:16:22.240Z,1.90
2022-08-03T10:16:53.687Z,1.37
2022-08-03T10:23:33.517Z,1.30
2022-08-03T10:24:31.250Z,1.50
2022-08-03T10:25:33.956Z,1.37
2022-08-03T10:26:32.637Z,1.40
2022-08-03T10:27:32.742Z,1.40
2022-08-03T10:28:36.669Z,1.40
2022-08-03T10:29:38.584Z,1.40
2022-08-03T10:30:35.413Z,1.30
2022-08-03T10:31:36.031Z,1.50
2022-08-03T10:33:02.999Z,1.57
2022-08-03T10:33:59.831Z,1.55
2022-08-03T10:35:19.068Z,1.40
2022-08-03T10:36:18.491Z,1.57
2022-08-03T10:37:15.192Z,2.10
2022-08-03T10:38:13.384Z,1.67
2022-08-03T10:39:16.135Z,1.42
2022-08-03T10:40:33.250Z,1.60
2022-08-03T10:41:35.342Z,1.63
2022-08-03T10:42:33.094Z,1.63
2022-08-03T10:43:37.190Z,1.50
2022-08-03T10:44:37.858Z,1.77
2022-08-03T10:45:34.828Z,1.43
2022-08-03T10:46:31.606Z,1.70
2022-08-03T10:47:28.976Z,1.90
2022-08-03T10:53:07.165Z,1.80
2022-08-03T10:54:04.608Z,1.90
2022-08-03T10:55:20.059Z,1.45
2022-08-03T10:56:52.122Z,1.63
2022-08-03T10:57:56.624Z,1.40
2022-08-03T10:58:57.899Z,1.60
2022-08-03T10:59:55.259Z,1.65
2022-08-03T11:00:52.405Z,1.92
2022-08-03T11:01:58.581Z,1.40
2022-08-03T11:03:09.464Z,1.83
2022-08-03T11:04:11.010Z,1.42
2022-08-03T11:05:28.703Z,1.70
2022-08-03T11:06:26.288Z,1.58
2022-08-03T11:07:24.031Z,1.63
2022-08-03T11:08:24.783Z,1.45
2022-08-03T11:09:21.650Z,1.20
2022-08-03T11:10:30.309Z,1.40
2022-08-03T11:11:28.722Z,1.92
2022-08-03T11:12:33.506Z,2.08
2022-08-03T11:13:33.462Z,1.80
2022-08-03T11:14:30.271Z,1.70
2022-08-03T11:15:34.277Z,1.88
2022-08-03T11:16:35.882Z,1.70
2022-08-03T11:17:45.717Z,1.60
2022-08-03T11:24:04.259Z,1.80
2022-08-03T11:25:02.582Z,1.63
2022-08-03T11:26:19.625Z,1.30
2022-08-03T11:27:20.086Z,1.60
2022-08-03T11:28:30.632Z,1.60
2022-08-03T11:29:29.641Z,1.60
2022-08-03T11:30:27.665Z,1.75
2022-08-03T11:31:48.531Z,1.70
2022-08-03T11:32:48.401Z,1.45
2022-08-03T11:34:03.060Z,1.60
2022-08-03T11:35:16.361Z,1.50
2022-08-03T11:36:31.994Z,2.28
2022-08-03T11:37:33.231Z,1.40
2022-08-03T11:38:30.518Z,1.90
2022-08-03T11:39:46.423Z,1.83
2022-08-03T11:40:50.036Z,1.40
2022-08-03T11:41:46.905Z,1.48
2022-08-03T11:42:45.210Z,1.60
2022-08-03T11:43:45.347Z,1.40
2022-08-03T11:44:42.103Z,1.67
2022-08-03T11:45:59.765Z,1.67
2022-08-03T11:46:56.568Z,1.70
2022-08-03T11:53:41.779Z,1.52
2022-08-03T11:54:39.356Z,1.45
2022-08-03T11:55:36.077Z,1.50
2022-08-03T11:56:49.225Z,1.70
2022-08-03T11:59:10.921Z,1.55
2022-08-03T11:59:20.650Z,1.63
2022-08-03T12:00:23.722Z,2.15
2022-08-03T12:01:23.465Z,1.60
2022-08-03T12:02:20.235Z,1.88
2022-08-03T12:03:18.418Z,1.52
2022-08-03T12:04:16.419Z,1.60
2022-08-03T12:05:13.347Z,1.88
2022-08-03T12:06:11.486Z,1.73
2022-08-03T12:07:08.335Z,1.75
2022-08-03T12:08:06.819Z,1.67
2022-08-03T12:09:15.749Z,1.70
2022-08-03T12:10:15.765Z,1.70
2022-08-03T12:11:15.399Z,1.42
2022-08-03T12:12:16.190Z,1.70
2022-08-03T12:14:44.394Z,1.75
2022-08-03T12:14:48.333Z,1.70
2022-08-03T12:15:54.560Z,1.90
2022-08-03T12:16:51.523Z,1.75
2022-08-03T12:23:41.643Z,1.63
2022-08-03T12:24:46.709Z,1.70
2022-08-03T12:25:44.729Z,1.67
2022-08-03T12:26:59.578Z,1.50
2022-08-03T12:28:36.990Z,1.80
2022-08-03T12:29:26.122Z,1.80
2022-08-03T12:30:23.453Z,2.10
2022-08-03T12:31:20.242Z,1.73
2022-08-03T12:32:17.346Z,1.95
2022-08-03T12:33:24.199Z,1.75
2022-08-03T12:34:21.206Z,1.90
2022-08-03T12:35:26.675Z,2.10
2022-08-03T12:36:23.614Z,1.63
2022-08-03T12:37:23.798Z,1.90
2022-08-03T12:38:21.971Z,1.73
2022-08-03T12:39:22.575Z,1.67
2022-08-03T12:40:28.723Z,1.55
2022-08-03T12:41:36.575Z,1.60
2022-08-03T12:42:35.061Z,1.70
2022-08-03T12:43:37.598Z,1.80
2022-08-03T12:44:36.616Z,1.83
2022-08-03T12:45:34.720Z,1.80
2022-08-03T12:46:36.817Z,1.83
2022-08-03T12:53:29.146Z,1.55
2022-08-03T12:54:31.709Z,1.67
2022-08-03T12:56:04.297Z,1.60
2022-08-03T12:57:01.232Z,1.80
2022-08-03T12:57:58.050Z,1.83
2022-08-03T12:58:55.012Z,1.90
2022-08-03T12:59:55.924Z,1.73
2022-08-03T13:00:56.312Z,1.70
2022-08-03T13:01:55.527Z,1.92
2022-08-03T13:03:26.553Z,1.65
2022-08-03T13:04:29.016Z,1.73
2022-08-03T13:05:28.648Z,1.77
2022-08-03T13:06:25.716Z,2.00
2022-08-03T13:07:22.891Z,1.67
2022-08-03T13:08:20.758Z,1.58
2022-08-03T13:09:17.720Z,1.67
2022-08-03T13:10:30.989Z,1.92
2022-08-03T13:11:53.529Z,1.60
2022-08-03T13:12:48.716Z,1.80
2022-08-03T13:13:46.205Z,1.80
2022-08-03T13:14:43.765Z,2.10
2022-08-03T13:15:47.668Z,1.75
2022-08-03T13:16:45.113Z,1.80
2022-08-03T13:23:39.859Z,1.67
2022-08-03T13:24:36.714Z,1.80
2022-08-03T13:25:33.865Z,1.52
2022-08-03T13:26:30.721Z,1.80
2022-08-03T13:28:04.014Z,1.80
2022-08-03T13:28:44.890Z,1.90
2022-08-03T13:29:43.105Z,1.83
2022-08-03T13:30:40.024Z,1.65
2022-08-03T13:31:36.958Z,1.60
2022-08-03T13:32:47.901Z,1.67
2022-08-03T13:33:44.813Z,1.90
2022-08-03T13:34:41.909Z,1.90
2022-08-03T13:35:38.868Z,1.95
2022-08-03T13:36:59.253Z,1.63
2022-08-03T13:37:52.551Z,2.00
2022-08-03T13:38:49.420Z,1.70
2022-08-03T13:39:57.864Z,1.63
2022-08-03T13:40:56.977Z,1.90
2022-08-03T13:41:53.945Z,1.70
2022-08-03T13:42:50.741Z,1.60
2022-08-03T13:43:47.512Z,1.65
2022-08-03T13:44:44.464Z,1.80
2022-08-03T13:45:43.610Z,1.85
2022-08-03T13:46:42.940Z,1.70
2022-08-03T13:53:39.728Z,1.80
2022-08-03T13:54:36.741Z,1.65
2022-08-03T13:55:33.811Z,1.80
2022-08-03T13:56:30.786Z,1.48
2022-08-03T13:58:03.858Z,1.70
2022-08-03T13:58:44.913Z,1.73
2022-08-03T13:59:42.222Z,1.83
2022-08-03T14:00:40.058Z,1.83
2022-08-03T14:01:53.987Z,2.20
2022-08-03T14:02:52.858Z,1.90
2022-08-03T14:03:52.782Z,1.67
2022-08-03T14:04:49.942Z,1.83
2022-08-03T14:05:47.882Z,2.00
2022-08-03T14:06:46.070Z,1.90
2022-08-03T14:07:43.179Z,1.63
2022-08-03T14:08:40.420Z,1.58
2022-08-03T14:09:37.506Z,1.55
2022-08-03T14:10:39.303Z,1.70
2022-08-03T14:12:07.701Z,2.00
2022-08-03T14:12:53.405Z,1.80
2022-08-03T14:13:50.530Z,1.70
2022-08-03T14:14:47.742Z,1.65
2022-08-03T14:15:50.271Z,1.70
2022-08-03T14:16:48.514Z,1.65
2022-08-03T14:24:45.428Z,1.75
2022-08-03T14:25:50.438Z,1.73
2022-08-03T14:26:49.660Z,1.80
2022-08-03T14:27:48.259Z,1.80
2022-08-03T14:28:45.601Z,2.13
2022-08-03T14:29:42.674Z,1.65
2022-08-03T14:30:39.790Z,1.83
2022-08-03T14:32:09.744Z,1.80
2022-08-03T14:32:59.143Z,1.60
2022-08-03T14:33:58.078Z,1.98
2022-08-03T14:34:55.320Z,1.67
2022-08-03T14:35:52.711Z,1.83
2022-08-03T14:36:49.922Z,1.77
2022-08-03T14:37:47.077Z,1.98
2022-08-03T14:38:44.115Z,1.92
2022-08-03T14:40:58.653Z,1.80
2022-08-03T14:41:55.891Z,1.80
2022-08-03T14:42:53.468Z,2.08
2022-08-03T14:44:00.449Z,1.88
2022-08-03T14:45:04.694Z,2.03
2022-08-03T14:46:04.616Z,1.90
2022-08-03T14:47:01.667Z,2.38
2022-08-03T14:53:37.955Z,1.77
2022-08-03T14:54:35.087Z,1.98
2022-08-03T14:55:38.487Z,1.80
2022-08-03T14:56:39.182Z,1.67
2022-08-03T14:57:36.418Z,1.63
2022-08-03T14:58:33.474Z,1.73
2022-08-03T14:59:55.809Z,1.80
2022-08-03T15:00:47.760Z,1.98
2022-08-03T15:02:02.978Z,1.80
2022-08-03T15:03:02.895Z,1.70
2022-08-03T15:04:00.302Z,1.63
2022-08-03T15:04:57.245Z,1.80
2022-08-03T15:05:57.595Z,1.73
2022-08-03T15:06:54.648Z,1.73
2022-08-03T15:07:51.570Z,1.92
2022-08-03T15:09:13.653Z,1.55
2022-08-03T15:10:07.561Z,1.60
2022-08-03T15:11:04.922Z,1.92
2022-08-03T15:12:02.296Z,1.40
2022-08-03T15:12:59.807Z,1.75
2022-08-03T15:13:57.155Z,1.80
2022-08-03T15:14:56.703Z,1.80
2022-08-03T15:15:53.958Z,1.77
2022-08-03T15:16:50.979Z,1.83
2022-08-03T15:23:33.873Z,1.70
2022-08-03T15:24:30.909Z,1.95
2022-08-03T15:26:03.722Z,1.80
2022-08-03T15:26:44.849Z,1.70
2022-08-03T15:28:04.318Z,2.05
2022-08-03T15:28:58.889Z,2.65
2022-08-03T15:30:09.100Z,2.97
2022-08-03T15:31:07.288Z,1.80
2022-08-03T15:32:09.026Z,2.13
2022-08-03T15:33:06.687Z,1.60
2022-08-03T15:34:03.679Z,3.28
2022-08-03T15:35:00.861Z,2.88
2022-08-03T15:35:57.692Z,1.70
2022-08-03T15:36:54.609Z,2.85
2022-08-03T15:37:51.704Z,2.28
2022-08-03T15:38:49.004Z,1.40
2022-08-03T15:39:59.831Z,2.47
2022-08-03T15:40:59.183Z,1.98
2022-08-03T15:41:56.119Z,1.80
2022-08-03T15:42:53.333Z,2.00
2022-08-03T15:43:52.856Z,2.63
2022-08-03T15:44:50.082Z,1.80
2022-08-03T15:45:47.047Z,1.92
2022-08-03T15:46:43.969Z,1.83
2022-08-03T15:54:38.910Z,1.70
2022-08-03T15:55:35.814Z,2.20
2022-08-03T15:56:32.682Z,1.98
2022-08-03T15:57:29.594Z,1.73
2022-08-03T15:59:04.294Z,1.70
2022-08-03T15:59:47.217Z,1.52
2022-08-03T16:00:44.167Z,1.80
2022-08-03T16:01:41.189Z,2.03
2022-08-03T16:02:38.202Z,1.60
2022-08-03T16:03:35.275Z,1.70
2022-08-03T16:04:32.033Z,1.35
2022-08-03T16:05:29.006Z,1.70
2022-08-03T16:06:35.300Z,2.00
2022-08-03T16:07:43.471Z,2.53
2022-08-03T16:08:59.571Z,2.50
2022-08-03T16:09:56.401Z,1.88
2022-08-03T16:10:53.382Z,1.98
2022-08-03T16:11:51.925Z,2.13
2022-08-03T16:12:48.834Z,1.77
2022-08-03T16:14:13.350Z,2.33
2022-08-03T16:15:02.957Z,2.95
2022-08-03T16:15:59.915Z,4.47
2022-08-03T16:16:56.775Z,1.90
2022-08-03T16:24:47.452Z,1.50
2022-08-03T16:25:48.975Z,3.58
2022-08-03T16:26:46.300Z,2.45
2022-08-03T16:28:00.600Z,2.75
2022-08-03T16:29:00.290Z,3.95
2022-08-03T16:29:57.332Z,6.70
2022-08-03T16:30:54.205Z,5.40
2022-08-03T16:31:52.291Z,5.38
2022-08-03T16:32:49.538Z,5.32
2022-08-03T16:33:46.471Z,3.22
2022-08-03T16:34:43.501Z,11.57
2022-08-03T16:35:40.403Z,3.67
2022-08-03T16:36:37.338Z,3.60
2022-08-03T16:37:38.980Z,3.58